sensor_id;sensor_type;location;lat;lon;timestamp;P1;durP1;ratioP1;P2;durP2;ratioP2
11524;SDS011;5819;49.648;8.330;2023-04-03T00:01:15;3.72;;;2.85;;
11524;SDS011;5819;49.648;8.330;2023-04-03T00:03:44;5.15;;;3.50;;
11524;SDS011;5819;49.648;8.330;2023-04-03T00:06:14;6.07;;;3.50;;
11524;SDS011;5819;49.648;8.330;2023-04-03T00:08:42;5.72;;;3.55;;
11524;SDS011;5819;49.648;8.330;2023-04-03T00:11:12;4.28;;;3.25;;
11524;SDS011;5819;49.648;8.330;2023-04-03T00:13:40;3.85;;;3.33;;
11524;SDS011;5819;49.648;8.330;2023-04-03T00:16:09;5.00;;;3.35;;
11524;SDS011;5819;49.648;8.330;2023-04-03T00:18:37;4.85;;;3.67;;
11524;SDS011;5819;49.648;8.330;2023-04-03T00:21:06;6.00;;;3.60;;
11524;SDS011;5819;49.648;8.330;2023-04-03T00:23:36;4.22;;;3.50;;
11524;SDS011;5819;49.648;8.330;2023-04-03T00:26:04;4.38;;;3.17;;
11524;SDS011;5819;49.648;8.330;2023-04-03T00:28:32;4.90;;;3.92;;
11524;SDS011;5819;49.648;8.330;2023-04-03T00:31:00;8.23;;;4.07;;
11524;SDS011;5819;49.648;8.330;2023-04-03T00:33:28;4.93;;;3.40;;
11524;SDS011;5819;49.648;8.330;2023-04-03T00:35:56;5.22;;;4.25;;
11524;SDS011;5819;49.648;8.330;2023-04-03T00:38:24;6.47;;;4.30;;
11524;SDS011;5819;49.648;8.330;2023-04-03T00:40:53;5.40;;;3.67;;
11524;SDS011;5819;49.648;8.330;2023-04-03T00:43:22;4.40;;;3.53;;
11524;SDS011;5819;49.648;8.330;2023-04-03T00:45:53;4.00;;;3.60;;
11524;SDS011;5819;49.648;8.330;2023-04-03T00:48:22;4.28;;;3.42;;
11524;SDS011;5819;49.648;8.330;2023-04-03T00:50:53;3.70;;;3.22;;
11524;SDS011;5819;49.648;8.330;2023-04-03T00:53:22;3.80;;;3.40;;
11524;SDS011;5819;49.648;8.330;2023-04-03T00:55:54;4.78;;;3.30;;
11524;SDS011;5819;49.648;8.330;2023-04-03T00:58:25;4.32;;;3.72;;
11524;SDS011;5819;49.648;8.330;2023-04-03T01:00:56;4.78;;;3.70;;
11524;SDS011;5819;49.648;8.330;2023-04-03T01:03:26;3.95;;;3.40;;
11524;SDS011;5819;49.648;8.330;2023-04-03T01:05:54;3.88;;;3.42;;
11524;SDS011;5819;49.648;8.330;2023-04-03T01:08:22;3.65;;;3.35;;
11524;SDS011;5819;49.648;8.330;2023-04-03T01:10:51;5.18;;;3.50;;
11524;SDS011;5819;49.648;8.330;2023-04-03T01:13:23;5.40;;;4.13;;
11524;SDS011;5819;49.648;8.330;2023-04-03T01:15:53;5.03;;;3.60;;
11524;SDS011;5819;49.648;8.330;2023-04-03T01:18:22;4.57;;;3.73;;
11524;SDS011;5819;49.648;8.330;2023-04-03T01:23:53;5.13;;;3.80;;
11524;SDS011;5819;49.648;8.330;2023-04-03T01:26:31;5.78;;;3.88;;
11524;SDS011;5819;49.648;8.330;2023-04-03T01:29:00;5.40;;;3.35;;
11524;SDS011;5819;49.648;8.330;2023-04-03T01:31:30;4.80;;;3.65;;
11524;SDS011;5819;49.648;8.330;2023-04-03T01:34:03;3.85;;;3.40;;
11524;SDS011;5819;49.648;8.330;2023-04-03T01:36:32;3.53;;;3.17;;
11524;SDS011;5819;49.648;8.330;2023-04-03T01:39:00;6.18;;;3.80;;
11524;SDS011;5819;49.648;8.330;2023-04-03T01:41:28;4.13;;;3.10;;
11524;SDS011;5819;49.648;8.330;2023-04-03T01:44:06;5.10;;;2.95;;
11524;SDS011;5819;49.648;8.330;2023-04-03T01:46:34;4.43;;;3.10;;
11524;SDS011;5819;49.648;8.330;2023-04-03T01:49:05;3.92;;;3.47;;
11524;SDS011;5819;49.648;8.330;2023-04-03T01:51:33;4.93;;;3.63;;
11524;SDS011;5819;49.648;8.330;2023-04-03T01:54:01;4.63;;;3.20;;
11524;SDS011;5819;49.648;8.330;2023-04-03T01:56:29;4.50;;;3.37;;
11524;SDS011;5819;49.648;8.330;2023-04-03T01:58:57;4.90;;;3.60;;
11524;SDS011;5819;49.648;8.330;2023-04-03T02:01:25;4.23;;;3.57;;
11524;SDS011;5819;49.648;8.330;2023-04-03T02:03:53;5.33;;;3.40;;
11524;SDS011;5819;49.648;8.330;2023-04-03T02:06:23;3.92;;;3.30;;
11524;SDS011;5819;49.648;8.330;2023-04-03T02:08:51;6.05;;;3.53;;
11524;SDS011;5819;49.648;8.330;2023-04-03T02:11:20;3.90;;;3.23;;
11524;SDS011;5819;49.648;8.330;2023-04-03T02:13:47;4.13;;;3.17;;
11524;SDS011;5819;49.648;8.330;2023-04-03T02:16:16;4.97;;;3.30;;
11524;SDS011;5819;49.648;8.330;2023-04-03T02:18:43;4.27;;;3.30;;
11524;SDS011;5819;49.648;8.330;2023-04-03T02:21:12;4.37;;;2.93;;
11524;SDS011;5819;49.648;8.330;2023-04-03T02:23:41;4.53;;;2.90;;
11524;SDS011;5819;49.648;8.330;2023-04-03T02:26:10;4.27;;;3.10;;
11524;SDS011;5819;49.648;8.330;2023-04-03T02:28:40;4.17;;;3.00;;
11524;SDS011;5819;49.648;8.330;2023-04-03T02:31:09;4.63;;;3.53;;
11524;SDS011;5819;49.648;8.330;2023-04-03T02:33:39;4.77;;;2.93;;
11524;SDS011;5819;49.648;8.330;2023-04-03T02:36:09;5.23;;;3.13;;
11524;SDS011;5819;49.648;8.330;2023-04-03T02:38:42;4.10;;;2.83;;
11524;SDS011;5819;49.648;8.330;2023-04-03T02:41:12;5.10;;;3.30;;
11524;SDS011;5819;49.648;8.330;2023-04-03T02:43:40;5.87;;;2.93;;
11524;SDS011;5819;49.648;8.330;2023-04-03T02:46:08;4.30;;;2.90;;
11524;SDS011;5819;49.648;8.330;2023-04-03T02:48:36;4.35;;;3.10;;
11524;SDS011;5819;49.648;8.330;2023-04-03T02:51:05;3.50;;;2.72;;
11524;SDS011;5819;49.648;8.330;2023-04-03T02:53:33;9.73;;;3.05;;
11524;SDS011;5819;49.648;8.330;2023-04-03T02:56:09;6.43;;;2.87;;
11524;SDS011;5819;49.648;8.330;2023-04-03T02:58:37;4.47;;;2.90;;
11524;SDS011;5819;49.648;8.330;2023-04-03T03:01:06;5.57;;;2.90;;
11524;SDS011;5819;49.648;8.330;2023-04-03T03:03:34;4.57;;;2.97;;
11524;SDS011;5819;49.648;8.330;2023-04-03T03:06:02;3.70;;;2.60;;
11524;SDS011;5819;49.648;8.330;2023-04-03T03:08:32;3.97;;;2.80;;
11524;SDS011;5819;49.648;8.330;2023-04-03T03:11:01;3.40;;;2.73;;
11524;SDS011;5819;49.648;8.330;2023-04-03T03:13:31;4.80;;;3.08;;
11524;SDS011;5819;49.648;8.330;2023-04-03T03:15:59;6.30;;;2.93;;
11524;SDS011;5819;49.648;8.330;2023-04-03T03:18:28;3.10;;;2.53;;
11524;SDS011;5819;49.648;8.330;2023-04-03T03:20:57;3.80;;;2.80;;
11524;SDS011;5819;49.648;8.330;2023-04-03T03:23:28;5.10;;;3.23;;
11524;SDS011;5819;49.648;8.330;2023-04-03T03:25:58;7.22;;;3.10;;
11524;SDS011;5819;49.648;8.330;2023-04-03T03:28:28;4.23;;;3.27;;
11524;SDS011;5819;49.648;8.330;2023-04-03T03:30:57;3.83;;;2.83;;
11524;SDS011;5819;49.648;8.330;2023-04-03T03:33:26;3.60;;;2.60;;
11524;SDS011;5819;49.648;8.330;2023-04-03T03:35:54;5.07;;;2.90;;
11524;SDS011;5819;49.648;8.330;2023-04-03T03:38:23;4.07;;;2.97;;
11524;SDS011;5819;49.648;8.330;2023-04-03T03:40:52;4.83;;;3.20;;
11524;SDS011;5819;49.648;8.330;2023-04-03T03:43:22;5.23;;;3.00;;
11524;SDS011;5819;49.648;8.330;2023-04-03T03:45:51;5.43;;;2.70;;
11524;SDS011;5819;49.648;8.330;2023-04-03T03:48:23;4.85;;;2.88;;
11524;SDS011;5819;49.648;8.330;2023-04-03T03:50:52;4.63;;;3.20;;
11524;SDS011;5819;49.648;8.330;2023-04-03T03:53:23;3.73;;;3.07;;
11524;SDS011;5819;49.648;8.330;2023-04-03T03:55:56;4.70;;;3.00;;
11524;SDS011;5819;49.648;8.330;2023-04-03T03:58:26;5.63;;;3.27;;
11524;SDS011;5819;49.648;8.330;2023-04-03T04:00:54;5.60;;;3.10;;
11524;SDS011;5819;49.648;8.330;2023-04-03T04:03:24;4.20;;;3.40;;
11524;SDS011;5819;49.648;8.330;2023-04-03T04:05:52;4.00;;;2.87;;
11524;SDS011;5819;49.648;8.330;2023-04-03T04:08:20;5.57;;;3.67;;
11524;SDS011;5819;49.648;8.330;2023-04-03T04:10:48;4.13;;;2.90;;
11524;SDS011;5819;49.648;8.330;2023-04-03T04:13:17;5.67;;;3.90;;
11524;SDS011;5819;49.648;8.330;2023-04-03T04:15:45;6.60;;;3.63;;
11524;SDS011;5819;49.648;8.330;2023-04-03T04:18:15;6.17;;;3.93;;
11524;SDS011;5819;49.648;8.330;2023-04-03T04:20:47;11.83;;;5.10;;
11524;SDS011;5819;49.648;8.330;2023-04-03T04:23:16;9.07;;;6.30;;
11524;SDS011;5819;49.648;8.330;2023-04-03T04:25:47;11.30;;;6.40;;
11524;SDS011;5819;49.648;8.330;2023-04-03T04:28:17;10.57;;;6.90;;
11524;SDS011;5819;49.648;8.330;2023-04-03T04:30:49;9.70;;;7.00;;
11524;SDS011;5819;49.648;8.330;2023-04-03T04:33:18;10.40;;;7.03;;
11524;SDS011;5819;49.648;8.330;2023-04-03T04:35:48;8.80;;;5.50;;
11524;SDS011;5819;49.648;8.330;2023-04-03T04:38:18;8.33;;;5.67;;
11524;SDS011;5819;49.648;8.330;2023-04-03T04:40:47;7.40;;;5.37;;
11524;SDS011;5819;49.648;8.330;2023-04-03T04:43:16;6.40;;;4.80;;
11524;SDS011;5819;49.648;8.330;2023-04-03T04:45:48;6.97;;;4.40;;
11524;SDS011;5819;49.648;8.330;2023-04-03T04:48:18;7.13;;;4.03;;
11524;SDS011;5819;49.648;8.330;2023-04-03T04:50:48;8.00;;;4.23;;
11524;SDS011;5819;49.648;8.330;2023-04-03T04:53:16;5.97;;;3.87;;
11524;SDS011;5819;49.648;8.330;2023-04-03T04:55:44;6.23;;;4.10;;
11524;SDS011;5819;49.648;8.330;2023-04-03T04:58:12;4.97;;;3.57;;
11524;SDS011;5819;49.648;8.330;2023-04-03T05:00:40;4.10;;;3.23;;
11524;SDS011;5819;49.648;8.330;2023-04-03T05:03:09;4.33;;;3.40;;
11524;SDS011;5819;49.648;8.330;2023-04-03T05:05:37;5.30;;;3.63;;
11524;SDS011;5819;49.648;8.330;2023-04-03T05:08:07;6.07;;;3.67;;
11524;SDS011;5819;49.648;8.330;2023-04-03T05:10:37;7.30;;;3.63;;
11524;SDS011;5819;49.648;8.330;2023-04-03T05:13:09;6.90;;;3.40;;
11524;SDS011;5819;49.648;8.330;2023-04-03T05:15:39;4.77;;;3.30;;
11524;SDS011;5819;49.648;8.330;2023-04-03T05:18:08;4.47;;;3.40;;
11524;SDS011;5819;49.648;8.330;2023-04-03T05:20:36;6.00;;;3.00;;
11524;SDS011;5819;49.648;8.330;2023-04-03T05:23:05;4.87;;;3.63;;
11524;SDS011;5819;49.648;8.330;2023-04-03T05:25:35;6.90;;;3.70;;
11524;SDS011;5819;49.648;8.330;2023-04-03T05:28:05;6.60;;;3.40;;
11524;SDS011;5819;49.648;8.330;2023-04-03T05:30:34;7.93;;;3.23;;
11524;SDS011;5819;49.648;8.330;2023-04-03T05:33:03;6.00;;;3.47;;
11524;SDS011;5819;49.648;8.330;2023-04-03T05:35:39;8.23;;;3.20;;
11524;SDS011;5819;49.648;8.330;2023-04-03T05:38:10;4.70;;;3.13;;
11524;SDS011;5819;49.648;8.330;2023-04-03T05:40:40;5.00;;;3.43;;
11524;SDS011;5819;49.648;8.330;2023-04-03T05:43:09;5.50;;;3.67;;
11524;SDS011;5819;49.648;8.330;2023-04-03T05:45:40;7.47;;;3.50;;
11524;SDS011;5819;49.648;8.330;2023-04-03T05:48:11;5.90;;;3.33;;
11524;SDS011;5819;49.648;8.330;2023-04-03T05:50:40;6.73;;;3.20;;
11524;SDS011;5819;49.648;8.330;2023-04-03T05:53:14;8.27;;;3.60;;
11524;SDS011;5819;49.648;8.330;2023-04-03T05:55:46;5.40;;;3.63;;
11524;SDS011;5819;49.648;8.330;2023-04-03T05:58:15;6.20;;;3.50;;
11524;SDS011;5819;49.648;8.330;2023-04-03T06:00:45;8.13;;;3.47;;
11524;SDS011;5819;49.648;8.330;2023-04-03T06:03:14;9.77;;;3.43;;
11524;SDS011;5819;49.648;8.330;2023-04-03T06:05:42;4.10;;;2.80;;
11524;SDS011;5819;49.648;8.330;2023-04-03T06:08:10;8.37;;;3.33;;
11524;SDS011;5819;49.648;8.330;2023-04-03T06:10:39;9.40;;;4.50;;
11524;SDS011;5819;49.648;8.330;2023-04-03T06:13:08;6.07;;;3.30;;
11524;SDS011;5819;49.648;8.330;2023-04-03T06:15:36;7.53;;;3.13;;
11524;SDS011;5819;49.648;8.330;2023-04-03T06:18:04;4.57;;;2.60;;
11524;SDS011;5819;49.648;8.330;2023-04-03T06:20:34;8.60;;;3.03;;
11524;SDS011;5819;49.648;8.330;2023-04-03T06:23:02;9.38;;;3.00;;
11524;SDS011;5819;49.648;8.330;2023-04-03T06:25:33;7.10;;;2.40;;
11524;SDS011;5819;49.648;8.330;2023-04-03T06:28:01;8.20;;;2.83;;
11524;SDS011;5819;49.648;8.330;2023-04-03T06:30:30;5.83;;;2.73;;
11524;SDS011;5819;49.648;8.330;2023-04-03T06:32:59;7.37;;;2.60;;
11524;SDS011;5819;49.648;8.330;2023-04-03T06:35:28;7.95;;;2.33;;
11524;SDS011;5819;49.648;8.330;2023-04-03T06:37:56;11.75;;;2.83;;
11524;SDS011;5819;49.648;8.330;2023-04-03T06:40:25;5.25;;;2.28;;
11524;SDS011;5819;49.648;8.330;2023-04-03T06:42:53;4.70;;;2.25;;
11524;SDS011;5819;49.648;8.330;2023-04-03T06:45:21;7.75;;;2.33;;
11524;SDS011;5819;49.648;8.330;2023-04-03T06:47:52;6.07;;;2.28;;
11524;SDS011;5819;49.648;8.330;2023-04-03T06:50:21;5.32;;;2.10;;
11524;SDS011;5819;49.648;8.330;2023-04-03T06:52:48;7.20;;;2.75;;
11524;SDS011;5819;49.648;8.330;2023-04-03T06:55:16;5.88;;;2.78;;
11524;SDS011;5819;49.648;8.330;2023-04-03T06:57:44;6.03;;;2.95;;
11524;SDS011;5819;49.648;8.330;2023-04-03T07:00:13;5.82;;;2.53;;
11524;SDS011;5819;49.648;8.330;2023-04-03T07:02:43;7.85;;;3.28;;
11524;SDS011;5819;49.648;8.330;2023-04-03T07:05:12;6.65;;;2.63;;
11524;SDS011;5819;49.648;8.330;2023-04-03T07:07:41;7.13;;;2.58;;
11524;SDS011;5819;49.648;8.330;2023-04-03T07:10:09;5.07;;;2.30;;
11524;SDS011;5819;49.648;8.330;2023-04-03T07:12:37;5.63;;;2.10;;
11524;SDS011;5819;49.648;8.330;2023-04-03T07:15:05;4.65;;;2.08;;
11524;SDS011;5819;49.648;8.330;2023-04-03T07:17:34;7.00;;;2.25;;
11524;SDS011;5819;49.648;8.330;2023-04-03T07:20:03;6.68;;;1.92;;
11524;SDS011;5819;49.648;8.330;2023-04-03T07:22:33;6.60;;;2.53;;
11524;SDS011;5819;49.648;8.330;2023-04-03T07:25:00;7.40;;;2.38;;
11524;SDS011;5819;49.648;8.330;2023-04-03T07:27:28;6.80;;;2.40;;
11524;SDS011;5819;49.648;8.330;2023-04-03T07:29:57;3.67;;;2.13;;
11524;SDS011;5819;49.648;8.330;2023-04-03T07:32:25;3.40;;;2.22;;
11524;SDS011;5819;49.648;8.330;2023-04-03T07:34:53;9.07;;;3.10;;
11524;SDS011;5819;49.648;8.330;2023-04-03T07:37:21;6.25;;;2.80;;
11524;SDS011;5819;49.648;8.330;2023-04-03T07:39:50;5.10;;;2.30;;
11524;SDS011;5819;49.648;8.330;2023-04-03T07:42:18;6.78;;;2.30;;
11524;SDS011;5819;49.648;8.330;2023-04-03T07:44:46;5.18;;;2.40;;
11524;SDS011;5819;49.648;8.330;2023-04-03T07:47:14;5.53;;;2.10;;
11524;SDS011;5819;49.648;8.330;2023-04-03T07:49:44;5.25;;;2.60;;
11524;SDS011;5819;49.648;8.330;2023-04-03T07:52:12;6.28;;;2.80;;
11524;SDS011;5819;49.648;8.330;2023-04-03T07:54:41;5.82;;;2.67;;
11524;SDS011;5819;49.648;8.330;2023-04-03T07:57:10;6.97;;;2.70;;
11524;SDS011;5819;49.648;8.330;2023-04-03T07:59:38;4.93;;;2.38;;
11524;SDS011;5819;49.648;8.330;2023-04-03T08:02:08;4.22;;;2.35;;
11524;SDS011;5819;49.648;8.330;2023-04-03T08:04:37;4.80;;;2.88;;
11524;SDS011;5819;49.648;8.330;2023-04-03T08:07:05;6.70;;;2.45;;
11524;SDS011;5819;49.648;8.330;2023-04-03T08:09:33;5.65;;;2.50;;
11524;SDS011;5819;49.648;8.330;2023-04-03T08:12:02;6.78;;;2.50;;
11524;SDS011;5819;49.648;8.330;2023-04-03T08:14:32;4.88;;;2.70;;
11524;SDS011;5819;49.648;8.330;2023-04-03T08:17:00;4.35;;;2.72;;
11524;SDS011;5819;49.648;8.330;2023-04-03T08:19:30;4.05;;;2.38;;
11524;SDS011;5819;49.648;8.330;2023-04-03T08:21:58;4.55;;;2.20;;
11524;SDS011;5819;49.648;8.330;2023-04-03T08:24:29;4.85;;;2.40;;
11524;SDS011;5819;49.648;8.330;2023-04-03T08:26:57;5.72;;;3.17;;
11524;SDS011;5819;49.648;8.330;2023-04-03T08:29:25;6.07;;;2.53;;
11524;SDS011;5819;49.648;8.330;2023-04-03T08:31:54;4.05;;;2.47;;
11524;SDS011;5819;49.648;8.330;2023-04-03T08:34:22;3.75;;;1.80;;
11524;SDS011;5819;49.648;8.330;2023-04-03T08:36:50;4.57;;;1.83;;
11524;SDS011;5819;49.648;8.330;2023-04-03T08:39:18;4.68;;;1.80;;
11524;SDS011;5819;49.648;8.330;2023-04-03T08:41:46;6.57;;;2.13;;
11524;SDS011;5819;49.648;8.330;2023-04-03T08:44:15;3.45;;;2.15;;
11524;SDS011;5819;49.648;8.330;2023-04-03T08:46:55;6.57;;;2.10;;
11524;SDS011;5819;49.648;8.330;2023-04-03T08:49:31;5.55;;;2.05;;
11524;SDS011;5819;49.648;8.330;2023-04-03T08:52:02;5.70;;;1.70;;
11524;SDS011;5819;49.648;8.330;2023-04-03T08:54:40;3.88;;;1.60;;
11524;SDS011;5819;49.648;8.330;2023-04-03T08:57:16;4.07;;;1.65;;
11524;SDS011;5819;49.648;8.330;2023-04-03T08:59:47;4.55;;;1.70;;
11524;SDS011;5819;49.648;8.330;2023-04-03T09:02:21;4.22;;;1.63;;
11524;SDS011;5819;49.648;8.330;2023-04-03T09:04:53;3.97;;;1.90;;
11524;SDS011;5819;49.648;8.330;2023-04-03T09:07:22;4.05;;;1.45;;
11524;SDS011;5819;49.648;8.330;2023-04-03T09:09:59;3.17;;;1.58;;
11524;SDS011;5819;49.648;8.330;2023-04-03T09:12:32;3.95;;;1.63;;
11524;SDS011;5819;49.648;8.330;2023-04-03T09:15:04;5.60;;;1.58;;
11524;SDS011;5819;49.648;8.330;2023-04-03T09:17:56;7.00;;;1.52;;
11524;SDS011;5819;49.648;8.330;2023-04-03T09:20:32;3.38;;;1.63;;
11524;SDS011;5819;49.648;8.330;2023-04-03T09:23:16;3.42;;;1.85;;
11524;SDS011;5819;49.648;8.330;2023-04-03T09:25:47;7.13;;;1.70;;
11524;SDS011;5819;49.648;8.330;2023-04-03T09:28:18;4.20;;;1.65;;
11524;SDS011;5819;49.648;8.330;2023-04-03T09:30:46;3.58;;;1.60;;
11524;SDS011;5819;49.648;8.330;2023-04-03T09:33:15;3.38;;;1.33;;
11524;SDS011;5819;49.648;8.330;2023-04-03T09:35:44;4.45;;;1.55;;
11524;SDS011;5819;49.648;8.330;2023-04-03T09:38:16;3.97;;;1.70;;
11524;SDS011;5819;49.648;8.330;2023-04-03T09:40:48;4.97;;;1.90;;
11524;SDS011;5819;49.648;8.330;2023-04-03T09:43:20;6.65;;;2.08;;
11524;SDS011;5819;49.648;8.330;2023-04-03T09:45:54;3.80;;;1.70;;
11524;SDS011;5819;49.648;8.330;2023-04-03T09:48:25;6.88;;;1.92;;
11524;SDS011;5819;49.648;8.330;2023-04-03T09:50:56;2.30;;;1.30;;
11524;SDS011;5819;49.648;8.330;2023-04-03T09:53:27;2.35;;;1.27;;
11524;SDS011;5819;49.648;8.330;2023-04-03T09:55:57;4.95;;;1.92;;
11524;SDS011;5819;49.648;8.330;2023-04-03T09:58:26;4.32;;;2.00;;
11524;SDS011;5819;49.648;8.330;2023-04-03T10:01:20;3.35;;;1.80;;
11524;SDS011;5819;49.648;8.330;2023-04-03T10:04:03;2.92;;;1.50;;
11524;SDS011;5819;49.648;8.330;2023-04-03T10:06:34;5.82;;;1.90;;
11524;SDS011;5819;49.648;8.330;2023-04-03T10:09:05;4.30;;;1.27;;
11524;SDS011;5819;49.648;8.330;2023-04-03T10:11:56;2.72;;;1.30;;
11524;SDS011;5819;49.648;8.330;2023-04-03T10:14:26;2.63;;;1.40;;
11524;SDS011;5819;49.648;8.330;2023-04-03T10:16:56;4.22;;;1.70;;
11524;SDS011;5819;49.648;8.330;2023-04-03T10:19:36;4.90;;;1.50;;
11524;SDS011;5819;49.648;8.330;2023-04-03T10:22:12;4.60;;;1.75;;
11524;SDS011;5819;49.648;8.330;2023-04-03T10:24:54;4.00;;;1.73;;
11524;SDS011;5819;49.648;8.330;2023-04-03T10:27:32;3.88;;;1.80;;
11524;SDS011;5819;49.648;8.330;2023-04-03T10:30:15;4.07;;;1.60;;
11524;SDS011;5819;49.648;8.330;2023-04-03T10:32:54;3.50;;;1.30;;
11524;SDS011;5819;49.648;8.330;2023-04-03T10:35:39;4.55;;;1.50;;
11524;SDS011;5819;49.648;8.330;2023-04-03T10:38:14;2.72;;;1.15;;
11524;SDS011;5819;49.648;8.330;2023-04-03T10:40:48;2.58;;;1.33;;
11524;SDS011;5819;49.648;8.330;2023-04-03T10:43:23;4.10;;;1.17;;
11524;SDS011;5819;49.648;8.330;2023-04-03T10:46:02;3.17;;;1.33;;
11524;SDS011;5819;49.648;8.330;2023-04-03T10:48:37;2.85;;;1.50;;
11524;SDS011;5819;49.648;8.330;2023-04-03T10:51:28;4.18;;;1.48;;
11524;SDS011;5819;49.648;8.330;2023-04-03T10:54:00;2.53;;;1.33;;
11524;SDS011;5819;49.648;8.330;2023-04-03T10:56:35;2.42;;;1.33;;
11524;SDS011;5819;49.648;8.330;2023-04-03T10:59:11;3.38;;;1.40;;
11524;SDS011;5819;49.648;8.330;2023-04-03T11:01:46;5.72;;;1.40;;
11524;SDS011;5819;49.648;8.330;2023-04-03T11:04:18;3.25;;;1.52;;
11524;SDS011;5819;49.648;8.330;2023-04-03T11:06:50;3.35;;;1.58;;
11524;SDS011;5819;49.648;8.330;2023-04-03T11:09:25;3.67;;;1.55;;
11524;SDS011;5819;49.648;8.330;2023-04-03T11:11:56;3.55;;;1.30;;
11524;SDS011;5819;49.648;8.330;2023-04-03T11:14:31;4.38;;;2.08;;
11524;SDS011;5819;49.648;8.330;2023-04-03T11:17:05;4.95;;;1.33;;
11524;SDS011;5819;49.648;8.330;2023-04-03T11:19:44;3.75;;;1.50;;
11524;SDS011;5819;49.648;8.330;2023-04-03T11:22:20;4.85;;;1.70;;
11524;SDS011;5819;49.648;8.330;2023-04-03T11:24:54;5.53;;;1.80;;
11524;SDS011;5819;49.648;8.330;2023-04-03T11:27:30;6.63;;;1.73;;
11524;SDS011;5819;49.648;8.330;2023-04-03T11:30:06;2.70;;;1.83;;
11524;SDS011;5819;49.648;8.330;2023-04-03T11:32:51;6.28;;;2.55;;
11524;SDS011;5819;49.648;8.330;2023-04-03T11:35:31;4.82;;;2.58;;
11524;SDS011;5819;49.648;8.330;2023-04-03T11:38:03;3.45;;;1.60;;
11524;SDS011;5819;49.648;8.330;2023-04-03T11:40:33;4.07;;;1.20;;
11524;SDS011;5819;49.648;8.330;2023-04-03T11:43:05;3.90;;;1.42;;
11524;SDS011;5819;49.648;8.330;2023-04-03T11:45:50;5.88;;;3.03;;
11524;SDS011;5819;49.648;8.330;2023-04-03T11:48:41;5.22;;;2.65;;
11524;SDS011;5819;49.648;8.330;2023-04-03T12:12:34;3.58;;;1.65;;
11524;SDS011;5819;49.648;8.330;2023-04-03T12:15:16;2.67;;;1.15;;
11524;SDS011;5819;49.648;8.330;2023-04-03T12:17:49;3.70;;;1.88;;
11524;SDS011;5819;49.648;8.330;2023-04-03T12:23:30;3.35;;;1.52;;
11524;SDS011;5819;49.648;8.330;2023-04-03T12:26:19;1.65;;;1.25;;
11524;SDS011;5819;49.648;8.330;2023-04-03T12:29:01;3.58;;;1.80;;
11524;SDS011;5819;49.648;8.330;2023-04-03T12:31:40;3.88;;;1.75;;
11524;SDS011;5819;49.648;8.330;2023-04-03T12:34:26;3.85;;;2.20;;
11524;SDS011;5819;49.648;8.330;2023-04-03T12:37:16;3.13;;;1.65;;
11524;SDS011;5819;49.648;8.330;2023-04-03T12:39:52;4.95;;;2.08;;
11524;SDS011;5819;49.648;8.330;2023-04-03T12:45:38;4.07;;;2.17;;
11524;SDS011;5819;49.648;8.330;2023-04-03T12:48:13;3.40;;;1.65;;
11524;SDS011;5819;49.648;8.330;2023-04-03T12:50:43;2.17;;;1.50;;
11524;SDS011;5819;49.648;8.330;2023-04-03T12:53:15;4.18;;;1.60;;
11524;SDS011;5819;49.648;8.330;2023-04-03T12:55:46;2.72;;;1.52;;
11524;SDS011;5819;49.648;8.330;2023-04-03T12:58:16;4.25;;;1.50;;
11524;SDS011;5819;49.648;8.330;2023-04-03T13:00:59;12.43;;;1.92;;
11524;SDS011;5819;49.648;8.330;2023-04-03T13:03:29;3.55;;;1.67;;
11524;SDS011;5819;49.648;8.330;2023-04-03T13:05:59;3.90;;;1.65;;
11524;SDS011;5819;49.648;8.330;2023-04-03T13:08:28;3.15;;;1.65;;
11524;SDS011;5819;49.648;8.330;2023-04-03T13:10:58;5.30;;;1.77;;
11524;SDS011;5819;49.648;8.330;2023-04-03T13:13:30;3.08;;;1.65;;
11524;SDS011;5819;49.648;8.330;2023-04-03T13:16:00;4.88;;;1.63;;
11524;SDS011;5819;49.648;8.330;2023-04-03T13:18:37;4.65;;;1.70;;
11524;SDS011;5819;49.648;8.330;2023-04-03T13:21:06;4.03;;;1.42;;
11524;SDS011;5819;49.648;8.330;2023-04-03T13:23:42;3.70;;;1.50;;
11524;SDS011;5819;49.648;8.330;2023-04-03T13:26:24;3.80;;;1.70;;
11524;SDS011;5819;49.648;8.330;2023-04-03T13:28:56;2.15;;;1.40;;
11524;SDS011;5819;49.648;8.330;2023-04-03T13:31:30;5.13;;;2.17;;
11524;SDS011;5819;49.648;8.330;2023-04-03T13:34:02;2.75;;;1.80;;
11524;SDS011;5819;49.648;8.330;2023-04-03T13:36:34;2.63;;;1.75;;
11524;SDS011;5819;49.648;8.330;2023-04-03T13:39:06;4.65;;;1.83;;
11524;SDS011;5819;49.648;8.330;2023-04-03T13:41:48;4.88;;;1.73;;
11524;SDS011;5819;49.648;8.330;2023-04-03T13:44:23;2.97;;;1.55;;
11524;SDS011;5819;49.648;8.330;2023-04-03T13:46:57;5.97;;;2.08;;
11524;SDS011;5819;49.648;8.330;2023-04-03T13:49:29;3.65;;;1.50;;
11524;SDS011;5819;49.648;8.330;2023-04-03T13:52:02;2.88;;;1.45;;
11524;SDS011;5819;49.648;8.330;2023-04-03T13:54:50;3.42;;;1.73;;
11524;SDS011;5819;49.648;8.330;2023-04-03T13:57:21;2.83;;;1.60;;
11524;SDS011;5819;49.648;8.330;2023-04-03T13:59:50;4.53;;;2.17;;
11524;SDS011;5819;49.648;8.330;2023-04-03T14:02:21;4.32;;;1.80;;
11524;SDS011;5819;49.648;8.330;2023-04-03T14:04:52;2.75;;;1.40;;
11524;SDS011;5819;49.648;8.330;2023-04-03T14:07:24;5.97;;;2.25;;
11524;SDS011;5819;49.648;8.330;2023-04-03T14:09:53;7.38;;;4.10;;
11524;SDS011;5819;49.648;8.330;2023-04-03T14:12:24;2.28;;;1.50;;
11524;SDS011;5819;49.648;8.330;2023-04-03T14:14:57;4.93;;;1.85;;
11524;SDS011;5819;49.648;8.330;2023-04-03T14:17:30;4.05;;;2.10;;
11524;SDS011;5819;49.648;8.330;2023-04-03T14:19:59;3.35;;;1.90;;
11524;SDS011;5819;49.648;8.330;2023-04-03T14:22:30;4.57;;;2.35;;
11524;SDS011;5819;49.648;8.330;2023-04-03T14:25:00;4.72;;;2.05;;
11524;SDS011;5819;49.648;8.330;2023-04-03T14:27:29;2.33;;;1.65;;
11524;SDS011;5819;49.648;8.330;2023-04-03T14:30:01;2.97;;;2.10;;
11524;SDS011;5819;49.648;8.330;2023-04-03T14:32:32;3.78;;;2.38;;
11524;SDS011;5819;49.648;8.330;2023-04-03T14:35:01;2.65;;;1.52;;
11524;SDS011;5819;49.648;8.330;2023-04-03T14:37:30;5.78;;;1.50;;
11524;SDS011;5819;49.648;8.330;2023-04-03T14:39:59;4.10;;;1.70;;
11524;SDS011;5819;49.648;8.330;2023-04-03T14:42:31;2.83;;;1.50;;
11524;SDS011;5819;49.648;8.330;2023-04-03T14:45:01;2.20;;;1.50;;
11524;SDS011;5819;49.648;8.330;2023-04-03T14:47:35;2.53;;;1.60;;
11524;SDS011;5819;49.648;8.330;2023-04-03T14:50:11;2.40;;;1.52;;
11524;SDS011;5819;49.648;8.330;2023-04-03T14:52:42;3.83;;;1.80;;
11524;SDS011;5819;49.648;8.330;2023-04-03T14:55:11;1.55;;;1.20;;
11524;SDS011;5819;49.648;8.330;2023-04-03T14:57:42;3.63;;;1.55;;
11524;SDS011;5819;49.648;8.330;2023-04-03T15:00:12;3.38;;;1.60;;
11524;SDS011;5819;49.648;8.330;2023-04-03T15:02:47;3.15;;;1.60;;
11524;SDS011;5819;49.648;8.330;2023-04-03T15:05:16;2.80;;;1.42;;
11524;SDS011;5819;49.648;8.330;2023-04-03T15:07:46;2.58;;;1.55;;
11524;SDS011;5819;49.648;8.330;2023-04-03T15:10:18;3.13;;;1.50;;
11524;SDS011;5819;49.648;8.330;2023-04-03T15:12:50;2.00;;;1.48;;
11524;SDS011;5819;49.648;8.330;2023-04-03T15:15:19;3.60;;;2.22;;
11524;SDS011;5819;49.648;8.330;2023-04-03T15:17:51;3.05;;;2.17;;
11524;SDS011;5819;49.648;8.330;2023-04-03T15:20:22;5.22;;;2.78;;
11524;SDS011;5819;49.648;8.330;2023-04-03T15:22:50;5.35;;;3.22;;
11524;SDS011;5819;49.648;8.330;2023-04-03T15:25:19;2.45;;;1.50;;
11524;SDS011;5819;49.648;8.330;2023-04-03T15:27:47;4.20;;;1.38;;
11524;SDS011;5819;49.648;8.330;2023-04-03T15:30:16;3.17;;;1.75;;
11524;SDS011;5819;49.648;8.330;2023-04-03T15:32:46;3.83;;;1.75;;
11524;SDS011;5819;49.648;8.330;2023-04-03T15:35:15;2.47;;;1.73;;
11524;SDS011;5819;49.648;8.330;2023-04-03T15:37:44;3.25;;;1.48;;
11524;SDS011;5819;49.648;8.330;2023-04-03T15:40:12;2.90;;;1.50;;
11524;SDS011;5819;49.648;8.330;2023-04-03T15:42:40;2.97;;;1.80;;
11524;SDS011;5819;49.648;8.330;2023-04-03T15:45:09;2.72;;;1.40;;
11524;SDS011;5819;49.648;8.330;2023-04-03T15:47:38;4.88;;;1.60;;
11524;SDS011;5819;49.648;8.330;2023-04-03T15:50:06;3.47;;;1.60;;
11524;SDS011;5819;49.648;8.330;2023-04-03T15:52:36;3.08;;;1.67;;
11524;SDS011;5819;49.648;8.330;2023-04-03T15:55:04;6.65;;;2.35;;